createdAt,value
2022-10-11T00:00:33.222Z,98692.81
2022-10-11T00:05:35.532Z,98695.59
2022-10-11T00:10:37.436Z,98714.31
2022-10-11T00:15:41.052Z,98718.66
2022-10-11T00:20:42.898Z,98723.84
2022-10-11T00:25:44.685Z,98726.75
2022-10-11T00:30:46.482Z,98737.16
2022-10-11T00:35:50.468Z,98737.44
2022-10-11T00:40:52.517Z,98738.72
2022-10-11T00:45:57.412Z,98738.38
2022-10-11T00:51:03.054Z,98754.84
2022-10-11T00:56:12.952Z,98758.28
2022-10-11T01:01:14.819Z,98756.66
2022-10-11T01:06:16.743Z,98760.25
2022-10-11T01:11:23.468Z,98763.03
2022-10-11T01:16:54.536Z,98764.81
2022-10-11T01:22:15.024Z,98771.00
2022-10-11T01:27:16.950Z,98782.44
2022-10-11T01:32:29.956Z,98778.84
2022-10-11T01:37:38.255Z,98784.22
2022-10-11T01:42:42.956Z,98786.50
2022-10-11T01:47:46.056Z,98793.34
2022-10-11T01:52:49.446Z,98796.75
2022-10-11T01:58:38.541Z,98787.94
2022-10-11T02:03:40.424Z,98798.03
2022-10-11T02:08:57.603Z,98807.50
2022-10-11T02:14:16.002Z,98809.94
2022-10-11T02:19:21.941Z,98816.13
2022-10-11T02:24:30.536Z,98824.78
2022-10-11T02:29:36.619Z,98820.72
2022-10-11T02:34:45.031Z,98821.06
2022-10-11T02:40:01.297Z,98820.88
2022-10-11T02:45:17.290Z,98820.06
2022-10-11T02:50:19.250Z,98835.72
2022-10-11T02:55:21.211Z,98835.91
2022-10-11T03:00:23.288Z,98843.88
2022-10-11T03:05:25.418Z,98860.53
2022-10-11T03:10:27.282Z,98863.00
2022-10-11T03:15:29.432Z,98874.41
2022-10-11T03:20:31.403Z,98883.22
2022-10-11T03:25:33.223Z,98892.19
2022-10-11T03:30:36.318Z,98888.75
2022-10-11T03:35:38.185Z,98907.53
2022-10-11T03:40:41.384Z,98908.66
2022-10-11T03:45:43.248Z,98907.88
2022-10-11T03:50:45.086Z,98919.94
2022-10-11T03:55:47.092Z,98930.22
2022-10-11T04:00:49.746Z,98931.69
2022-10-11T04:05:51.871Z,98938.69
2022-10-11T04:10:53.721Z,98945.88
2022-10-11T04:15:55.617Z,98955.97
2022-10-11T04:20:57.512Z,98960.19
2022-10-11T04:25:59.607Z,98954.97
2022-10-11T04:31:01.748Z,98969.00
2022-10-11T04:36:04.146Z,98972.56
2022-10-11T04:41:11.156Z,98978.44
2022-10-11T04:46:13.001Z,98986.25
2022-10-11T04:51:14.861Z,98995.06
2022-10-11T04:56:18.636Z,98992.13
2022-10-11T05:01:21.582Z,99001.88
2022-10-11T05:06:23.424Z,99002.34
2022-10-11T05:11:25.253Z,99009.50
2022-10-11T05:16:27.087Z,99016.81
2022-10-11T05:21:29.663Z,99019.59
2022-10-11T05:26:31.657Z,99031.47
2022-10-11T05:31:33.774Z,99031.78
2022-10-11T05:36:35.696Z,99048.03
2022-10-11T05:41:37.567Z,99056.81
2022-10-11T05:46:39.583Z,99067.69
2022-10-11T05:51:41.656Z,99075.00
2022-10-11T05:56:43.647Z,99085.72
2022-10-11T06:01:45.667Z,99090.44
2022-10-11T06:06:47.645Z,99100.03
2022-10-11T06:11:53.641Z,99101.00
2022-10-11T06:16:55.485Z,99101.16
2022-10-11T06:21:57.315Z,99104.13
2022-10-11T06:26:59.202Z,99107.06
2022-10-11T06:32:01.092Z,99118.00
2022-10-11T06:37:02.936Z,99122.72
2022-10-11T06:42:04.789Z,99122.41
2022-10-11T06:47:07.422Z,99141.00
2022-10-11T06:52:09.727Z,99138.91
2022-10-11T06:57:11.714Z,99149.66
2022-10-11T07:02:13.658Z,99154.41
2022-10-11T07:07:15.783Z,99160.78
2022-10-11T07:12:17.856Z,99167.47
2022-10-11T07:17:19.748Z,99170.47
2022-10-11T07:22:21.721Z,99174.22
2022-10-11T07:27:23.767Z,99170.66
2022-10-11T07:32:25.666Z,99181.41
2022-10-11T07:37:27.693Z,99180.44
2022-10-11T07:42:29.525Z,99186.16
2022-10-11T07:47:31.714Z,99186.34
2022-10-11T07:52:35.623Z,99177.59
2022-10-11T07:57:37.501Z,99185.91
2022-10-11T08:02:39.441Z,99193.94
2022-10-11T08:07:41.506Z,99188.72
2022-10-11T08:12:43.353Z,99190.69
2022-10-11T08:17:45.642Z,99193.63
2022-10-11T08:22:47.538Z,99192.50
2022-10-11T08:27:49.440Z,99191.22
2022-10-11T08:32:51.474Z,99200.69
2022-10-11T08:37:53.894Z,99195.63
2022-10-11T08:43:05.002Z,99199.03
2022-10-11T08:48:21.611Z,99194.66
2022-10-11T08:53:46.259Z,99199.88
2022-10-11T08:59:04.629Z,99203.63
2022-10-11T09:04:06.752Z,99211.78
2022-10-11T09:09:33.284Z,99213.28
2022-10-11T09:14:53.694Z,99212.78
2022-10-11T09:19:55.613Z,99208.38
2022-10-11T09:25:11.590Z,99205.09
2022-10-11T09:30:16.690Z,99207.25
2022-10-11T09:35:23.200Z,99213.56
2022-10-11T09:41:02.413Z,99217.97
2022-10-11T09:46:11.184Z,99208.50
2022-10-11T09:51:18.342Z,99207.97
2022-10-11T09:56:20.853Z,99206.25
2022-10-11T10:01:27.033Z,99209.53
2022-10-11T10:06:29.270Z,99204.03
2022-10-11T10:11:37.242Z,99205.28
2022-10-11T10:16:39.550Z,99208.34
2022-10-11T10:21:48.524Z,99216.53
2022-10-11T10:27:10.849Z,99220.81
2022-10-11T10:32:16.966Z,99212.78
2022-10-11T10:37:29.546Z,99209.91
2022-10-11T10:42:31.864Z,99219.13
2022-10-11T10:47:51.680Z,99211.88
2022-10-11T10:53:16.484Z,99224.28
2022-10-11T10:58:42.499Z,99227.75
2022-10-11T11:04:14.576Z,99233.63
2022-10-11T11:09:28.324Z,99228.47
2022-10-11T11:14:44.469Z,99225.19
2022-10-11T11:20:21.030Z,99219.94
2022-10-11T11:25:30.031Z,99218.63
2022-10-11T11:30:53.054Z,99210.09
2022-10-11T11:35:58.666Z,99208.72
2022-10-11T11:41:05.671Z,99207.69
2022-10-11T11:46:22.466Z,99212.97
2022-10-11T11:51:41.689Z,99209.00
2022-10-11T11:57:07.397Z,99214.25
2022-10-11T12:02:27.524Z,99210.31
2022-10-11T12:07:29.762Z,99199.84
2022-10-11T12:12:37.772Z,99200.13
2022-10-11T12:17:57.781Z,99204.69
2022-10-11T12:23:20.203Z,99207.13
2022-10-11T12:28:37.101Z,99196.88
2022-10-11T12:33:39.132Z,99191.50
2022-10-11T12:38:41.990Z,99190.34
2022-10-11T12:43:49.992Z,99183.63
2022-10-11T12:49:27.654Z,99186.53
2022-10-11T12:55:00.128Z,99178.41
2022-10-11T13:00:29.750Z,99189.03
2022-10-11T13:05:47.720Z,99181.47
2022-10-11T13:10:54.374Z,99189.34
2022-10-11T13:15:57.695Z,99182.81
2022-10-11T13:20:59.505Z,99186.94
2022-10-11T13:26:02.517Z,99195.97
2022-10-11T13:31:05.888Z,99193.72
2022-10-11T13:36:15.384Z,99196.53
2022-10-11T13:41:17.943Z,99196.72
2022-10-11T13:46:23.186Z,99186.94
2022-10-11T13:51:35.387Z,99184.47
2022-10-11T13:56:43.355Z,99191.03
2022-10-11T14:01:46.416Z,99184.84
2022-10-11T14:06:59.044Z,99186.31
2022-10-11T14:12:26.593Z,99186.00
2022-10-11T14:17:45.233Z,99181.91
2022-10-11T14:22:47.025Z,99177.81
2022-10-11T14:27:49.422Z,99177.97
2022-10-11T14:32:54.986Z,99178.97
2022-10-11T14:38:02.271Z,99183.84
2022-10-11T14:43:04.071Z,99181.25
2022-10-11T14:48:06.323Z,99182.38
2022-10-11T14:53:10.384Z,99180.13
2022-10-11T14:58:15.653Z,99191.72
2022-10-11T15:03:17.773Z,99185.19
2022-10-11T15:08:19.973Z,99175.22
2022-10-11T15:13:22.746Z,99184.88
2022-10-11T15:18:24.823Z,99183.56
2022-10-11T15:23:26.804Z,99182.25
2022-10-11T15:28:31.614Z,99180.81
2022-10-11T15:33:33.550Z,99189.13
2022-10-11T15:38:35.792Z,99180.97
2022-10-11T15:43:37.612Z,99186.81
2022-10-11T15:48:39.592Z,99184.22
2022-10-11T15:53:41.507Z,99193.19
2022-10-11T15:58:43.714Z,99191.38
2022-10-11T16:03:49.872Z,99194.97
2022-10-11T16:08:51.695Z,99196.91
2022-10-11T16:13:53.680Z,99204.06
2022-10-11T16:18:55.532Z,99199.63
2022-10-11T16:23:57.491Z,99202.38
2022-10-11T16:28:59.431Z,99204.00
2022-10-11T16:34:01.736Z,99212.44
2022-10-11T16:39:24.267Z,99213.06
2022-10-11T16:44:27.833Z,99213.03
2022-10-11T16:49:29.928Z,99214.66
2022-10-11T16:54:32.290Z,99216.25
2022-10-11T16:59:34.574Z,99222.75
2022-10-11T17:04:36.745Z,99219.75
2022-10-11T17:09:46.141Z,99219.09
2022-10-11T17:14:48.942Z,99218.72
2022-10-11T17:20:00.008Z,99222.63
2022-10-11T17:25:03.349Z,99223.25
2022-10-11T17:30:05.612Z,99226.44
2022-10-11T17:35:08.401Z,99228.03
2022-10-11T17:40:10.944Z,99230.28
2022-10-11T17:45:12.844Z,99240.34
2022-10-11T17:50:17.723Z,99242.88
2022-10-11T17:55:19.634Z,99238.72
2022-10-11T18:00:21.832Z,99233.31
2022-10-11T18:05:23.915Z,99241.56
2022-10-11T18:10:25.863Z,99235.03
2022-10-11T18:15:32.117Z,99235.47
2022-10-11T18:20:33.996Z,99241.81
2022-10-11T18:25:35.872Z,99246.19
2022-10-11T18:30:43.756Z,99241.28
2022-10-11T18:35:45.803Z,99238.69
2022-10-11T18:40:47.636Z,99233.25
2022-10-11T18:45:49.700Z,99234.38
2022-10-11T18:51:22.408Z,99237.28
2022-10-11T18:56:25.632Z,99232.38
2022-10-11T19:01:34.011Z,99216.22
2022-10-11T19:06:43.087Z,99225.28
2022-10-11T19:11:45.533Z,99224.78
2022-10-11T19:16:49.718Z,99225.88
2022-10-11T19:21:52.091Z,99220.16
2022-10-11T19:26:58.527Z,99218.81
2022-10-11T19:32:04.261Z,99217.78
2022-10-11T19:37:06.353Z,99221.78
2022-10-11T19:42:08.633Z,99224.78
2022-10-11T19:47:10.503Z,99224.41
2022-10-11T19:52:13.594Z,99231.69
2022-10-11T19:57:15.440Z,99235.25
2022-10-11T20:02:18.443Z,99233.22
2022-10-11T20:07:20.357Z,99236.13
2022-10-11T20:12:22.301Z,99232.16
2022-10-11T20:17:44.252Z,99231.63
2022-10-11T20:22:46.343Z,99237.13
2022-10-11T20:27:48.386Z,99239.03
2022-10-11T20:32:51.169Z,99242.59
2022-10-11T20:37:54.513Z,99244.38
2022-10-11T20:42:56.833Z,99248.09
2022-10-11T20:47:58.844Z,99243.19
2022-10-11T20:53:01.031Z,99240.72
2022-10-11T20:58:02.911Z,99240.06
2022-10-11T21:03:05.445Z,99239.66
2022-10-11T21:08:07.986Z,99239.41
2022-10-11T21:13:09.887Z,99242.28
2022-10-11T21:18:12.602Z,99239.16
2022-10-11T21:23:18.913Z,99240.81
2022-10-11T21:28:20.751Z,99234.78
2022-10-11T21:33:22.622Z,99240.13
2022-10-11T21:38:24.745Z,99243.00
2022-10-11T21:43:26.643Z,99241.38
2022-10-11T21:48:29.513Z,99244.25
2022-10-11T21:53:31.453Z,99246.59
2022-10-11T21:58:33.334Z,99247.16
2022-10-11T22:03:35.224Z,99244.16
2022-10-11T22:08:37.835Z,99237.59
2022-10-11T22:13:39.869Z,99238.69
2022-10-11T22:18:43.101Z,99237.34
2022-10-11T22:23:50.204Z,99231.34
2022-10-11T22:28:53.515Z,99238.59
2022-10-11T22:34:01.993Z,99236.25
2022-10-11T22:39:07.932Z,99243.66
2022-10-11T22:44:11.382Z,99245.69
2022-10-11T22:49:13.282Z,99246.66
2022-10-11T22:54:15.486Z,99250.22
2022-10-11T22:59:17.349Z,99250.75
2022-10-11T23:04:20.952Z,99252.94
2022-10-11T23:09:26.542Z,99247.34
2022-10-11T23:14:28.626Z,99251.06
2022-10-11T23:19:30.491Z,99242.75
2022-10-11T23:24:32.335Z,99239.59
2022-10-11T23:29:34.263Z,99234.69
2022-10-11T23:34:38.995Z,99236.75
2022-10-11T23:39:41.051Z,99240.44
2022-10-11T23:44:42.932Z,99244.09
2022-10-11T23:49:44.844Z,99246.81
2022-10-11T23:54:46.710Z,99239.31
2022-10-11T23:59:48.554Z,99243.81
